Time;durP1;ratioP1;P1;durP2;ratioP2;P2;SDS_P1;SDS_P2;PMS_P1;PMS_P2;Temp;Humidity;BMP_temperature;BMP_pressure;BME280_temperature;BME280_humidity;BME280_pressure;Samples;Min_cycle;Max_cycle;Signal;HPM_P1;HPM_P2
2022/08/23 00:00:21;;;;;;;9.10;3.75;;;18.80;95.90;;;;;;4213110;28;20043;-84
2022/08/23 00:02:22;;;;;;;11.60;3.78;;;18.80;95.90;;;;;;4213983;28;20491;-84
2022/08/23 00:04:26;;;;;;;6.97;3.28;;;18.70;95.90;;;;;;4214374;28;20147;-84
2022/08/23 00:06:27;;;;;;;5.88;3.75;;;18.80;96.10;;;;;;4195586;28;20044;-84
2022/08/23 00:08:30;;;;;;;10.35;3.72;;;18.70;96.20;;;;;;4212928;28;20403;-84
2022/08/23 00:10:31;;;;;;;7.10;3.90;;;18.70;96.20;;;;;;4213619;28;20058;-85
2022/08/23 00:12:32;;;;;;;7.50;3.65;;;18.70;96.30;;;;;;4213534;28;20067;-85
2022/08/23 00:14:36;;;;;;;6.10;3.67;;;18.70;96.30;;;;;;4214270;28;20139;-84
2022/08/23 00:16:37;;;;;;;6.95;3.80;;;18.70;96.40;;;;;;4212810;28;20040;-83
2022/08/23 00:18:37;;;;;;;7.22;3.90;;;18.70;96.30;;;;;;4195562;28;20056;-84
2022/08/23 00:20:38;;;;;;;7.05;3.80;;;18.70;96.30;;;;;;4212308;28;20089;-84
2022/08/23 00:22:39;;;;;;;7.43;3.63;;;18.60;96.40;;;;;;4212729;28;20055;-84
2022/08/23 00:24:40;;;;;;;8.07;4.07;;;18.60;96.50;;;;;;4213653;28;20111;-84
2022/08/23 00:27:15;;;;;;;6.90;3.95;;;18.60;96.70;;;;;;4212742;28;20400;-83
2022/08/23 00:29:17;;;;;;;6.43;4.47;;;18.60;96.90;;;;;;4213441;28;20047;-84
2022/08/23 00:31:18;;;;;;;7.72;3.75;;;18.50;96.60;;;;;;4213870;28;20127;-84
2022/08/23 00:33:20;;;;;;;8.70;4.43;;;18.50;96.60;;;;;;4213879;28;20129;-84
2022/08/23 00:35:21;;;;;;;7.93;4.40;;;18.50;96.60;;;;;;4212548;28;20040;-84
2022/08/23 00:37:22;;;;;;;8.63;4.03;;;18.40;96.60;;;;;;4213988;28;20154;-85
2022/08/23 00:39:23;;;;;;;7.32;4.13;;;18.40;96.70;;;;;;4213547;28;20052;-84
2022/08/23 00:41:25;;;;;;;7.72;4.57;;;18.40;96.80;;;;;;4213497;28;20039;-84
2022/08/23 00:48:32;;;;;;;7.65;4.35;;;18.30;97.10;;;;;;4213676;28;20091;-84
2022/08/23 00:50:54;;;;;;;9.57;5.10;;;18.30;97.10;;;;;;4213368;28;20047;-84
2022/08/23 00:53:13;;;;;;;9.70;4.57;;;18.30;97.30;;;;;;4213671;28;20040;-84
2022/08/23 00:55:16;;;;;;;6.90;4.55;;;18.20;97.30;;;;;;4196000;28;20056;-84
2022/08/23 00:57:18;;;;;;;9.75;4.50;;;18.20;97.30;;;;;;4213629;28;20044;-83
2022/08/23 00:59:19;;;;;;;8.88;5.25;;;18.20;97.50;;;;;;4212862;28;20144;-84
2022/08/23 01:01:20;;;;;;;10.80;5.70;;;18.10;97.70;;;;;;4195962;28;20086;-84
2022/08/23 01:03:23;;;;;;;9.52;5.00;;;18.10;97.90;;;;;;4213676;28;20400;-84
2022/08/23 01:05:30;;;;;;;8.52;4.43;;;18.10;98.10;;;;;;4213721;28;20170;-84
2022/08/23 01:07:47;;;;;;;10.88;4.90;;;18.10;98.20;;;;;;4213634;28;20051;-84
2022/08/23 01:09:52;;;;;;;11.75;5.57;;;18.10;98.20;;;;;;4195557;28;20063;-84
2022/08/23 01:12:10;;;;;;;7.53;5.45;;;18.10;98.30;;;;;;4212186;28;20130;-84
2022/08/23 01:14:25;;;;;;;11.93;5.60;;;17.90;98.50;;;;;;4211942;28;20101;-83
2022/08/23 01:16:34;;;;;;;6.78;5.00;;;18.10;98.60;;;;;;4195836;28;20484;-84
2022/08/23 01:18:36;;;;;;;8.32;4.40;;;18.10;98.60;;;;;;4212473;28;20059;-84
2022/08/23 01:21:01;;;;;;;11.30;5.07;;;18.00;98.60;;;;;;4212877;28;20454;-84
2022/08/23 01:23:35;;;;;;;11.55;4.72;;;18.00;98.70;;;;;;4213283;28;20056;-83
2022/08/23 01:25:37;;;;;;;11.43;5.32;;;17.90;99.00;;;;;;4195512;28;20076;-84
2022/08/23 01:27:39;;;;;;;9.75;5.25;;;17.90;98.70;;;;;;4212291;28;20431;-84
2022/08/23 01:29:41;;;;;;;10.77;5.13;;;17.90;98.80;;;;;;4211480;28;20432;-84
2022/08/23 01:31:42;;;;;;;8.70;4.63;;;17.90;99.00;;;;;;4212220;28;20044;-83
2022/08/23 01:33:47;;;;;;;11.25;4.93;;;17.90;99.00;;;;;;4213760;28;20036;-83
2022/08/23 01:35:52;;;;;;;9.00;5.13;;;17.90;99.00;;;;;;4213699;28;20044;-85
2022/08/23 01:37:53;;;;;;;14.20;5.22;;;17.90;99.20;;;;;;4213907;28;20393;-84
2022/08/23 01:39:54;;;;;;;8.02;4.63;;;17.90;99.20;;;;;;4212514;28;20051;-85
2022/08/23 01:41:54;;;;;;;12.23;5.10;;;17.90;99.20;;;;;;4213362;28;20127;-85
2022/08/23 01:43:55;;;;;;;8.27;4.82;;;17.80;99.20;;;;;;4211609;28;20539;-85
2022/08/23 01:45:56;;;;;;;7.65;4.95;;;17.80;99.20;;;;;;4211781;28;20056;-85
2022/08/23 01:47:57;;;;;;;10.43;4.63;;;17.80;99.30;;;;;;4213506;28;20119;-84
2022/08/23 01:49:58;;;;;;;10.00;4.80;;;17.80;99.30;;;;;;4195685;28;20041;-85
2022/08/23 01:51:59;;;;;;;9.65;4.93;;;17.80;99.40;;;;;;4195617;28;20479;-84
2022/08/23 01:53:59;;;;;;;10.55;5.82;;;17.70;99.40;;;;;;4211439;28;20043;-85
2022/08/23 01:56:00;;;;;;;9.07;4.82;;;17.70;99.50;;;;;;4195433;28;20048;-84
2022/08/23 01:58:04;;;;;;;7.97;5.20;;;17.70;99.60;;;;;;4195583;28;20044;-84
2022/08/23 02:00:06;;;;;;;9.30;4.95;;;17.70;99.70;;;;;;4212016;28;20091;-84
2022/08/23 02:02:07;;;;;;;10.23;4.63;;;17.70;99.70;;;;;;4213476;28;20051;-84
2022/08/23 02:04:08;;;;;;;7.03;5.50;;;17.70;99.70;;;;;;4212375;28;20127;-85
2022/08/23 02:06:09;;;;;;;10.02;5.15;;;17.60;99.90;;;;;;4215045;28;20036;-84
2022/08/23 02:10:28;;;;;;;;;;;17.60;99.90;;;;;;4216739;28;20052;-84
2022/08/23 02:12:30;;;;;;;9.52;5.07;;;17.50;99.90;;;;;;4216183;28;20368;-84
2022/08/23 02:14:31;;;;;;;9.07;5.35;;;17.50;99.80;;;;;;4216184;28;20056;-84
2022/08/23 02:16:38;;;;;;;8.68;4.88;;;17.50;99.80;;;;;;4197569;28;20044;-84
2022/08/23 02:18:39;;;;;;;9.55;4.72;;;17.50;99.90;;;;;;4216116;28;20047;-84
2022/08/23 02:20:50;;;;;;;7.50;4.88;;;17.50;99.90;;;;;;4214161;28;20504;-84
2022/08/23 02:22:50;;;;;;;5.93;4.68;;;17.40;99.90;;;;;;4216351;28;20063;-85
2022/08/23 02:24:51;;;;;;;8.70;5.90;;;17.40;99.90;;;;;;4216116;28;20040;-85
2022/08/23 02:26:55;;;;;;;11.90;4.80;;;17.30;99.90;;;;;;4214577;28;20067;-84
2022/08/23 02:28:56;;;;;;;7.97;4.10;;;17.30;99.90;;;;;;4198002;28;20404;-84
2022/08/23 02:30:57;;;;;;;6.28;4.00;;;17.30;99.90;;;;;;4197953;28;20044;-84
2022/08/23 02:32:58;;;;;;;7.20;5.38;;;17.30;99.90;;;;;;4215943;28;20036;-84
2022/08/23 02:34:58;;;;;;;7.18;3.92;;;17.20;99.90;;;;;;4214775;28;20508;-83
2022/08/23 02:36:59;;;;;;;6.50;3.90;;;17.20;99.90;;;;;;4215307;28;20044;-84
2022/08/23 02:39:00;;;;;;;5.93;4.30;;;17.20;99.90;;;;;;4214423;28;20051;-84
2022/08/23 02:41:01;;;;;;;8.35;4.28;;;17.20;99.90;;;;;;4213936;28;20404;-84
2022/08/23 02:43:03;;;;;;;6.82;4.07;;;17.10;99.90;;;;;;4214393;28;20057;-83
2022/08/23 02:45:04;;;;;;;6.75;3.85;;;17.10;99.90;;;;;;4214392;28;20048;-83
2022/08/23 02:47:06;;;;;;;5.75;3.58;;;17.10;99.90;;;;;;4214565;28;20044;-83
2022/08/23 02:49:07;;;;;;;6.20;3.20;;;17.10;99.90;;;;;;4196975;28;20072;-84
2022/08/23 02:51:08;;;;;;;6.28;3.40;;;17.00;99.90;;;;;;4215090;28;20048;-84
2022/08/23 02:53:09;;;;;;;7.20;3.85;;;17.00;99.90;;;;;;4215675;28;20048;-84
2022/08/23 02:55:10;;;;;;;5.65;2.97;;;17.00;99.90;;;;;;4215704;28;20071;-84
2022/08/23 02:57:11;;;;;;;3.85;2.85;;;17.00;99.90;;;;;;4197468;28;20098;-85
2022/08/23 02:59:12;;;;;;;4.30;2.85;;;16.90;99.90;;;;;;4214370;28;20048;-85
2022/08/23 03:01:32;;;;;;;4.05;2.90;;;16.90;99.90;;;;;;4213657;28;20048;-84
2022/08/23 03:03:33;;;;;;;4.95;2.53;;;16.90;99.90;;;;;;4215426;28;20058;-85
2022/08/23 03:05:33;;;;;;;3.40;2.72;;;16.90;99.90;;;;;;4215232;28;20459;-83
2022/08/23 03:07:34;;;;;;;3.90;2.50;;;16.90;99.90;;;;;;4197267;28;20044;-84
2022/08/23 03:09:35;;;;;;;7.13;3.15;;;16.90;99.90;;;;;;4196679;28;20081;-84
2022/08/23 03:11:37;;;;;;;5.38;2.63;;;16.90;99.90;;;;;;4213504;28;20047;-84
2022/08/23 03:13:38;;;;;;;4.07;2.70;;;16.80;99.90;;;;;;4230815;28;20052;-84
2022/08/23 03:15:40;;;;;;;5.53;3.47;;;16.80;99.90;;;;;;4213868;28;20097;-84
2022/08/23 03:17:41;;;;;;;4.85;3.67;;;16.80;99.90;;;;;;4196624;28;20041;-84
2022/08/23 03:19:42;;;;;;;5.32;3.38;;;16.80;99.90;;;;;;4214948;28;20051;-83
2022/08/23 03:21:43;;;;;;;7.05;4.30;;;16.80;99.90;;;;;;4214766;28;20048;-84
2022/08/23 03:23:44;;;;;;;8.90;4.20;;;16.70;99.90;;;;;;4213986;28;20220;-84
2022/08/23 03:25:44;;;;;;;9.63;4.38;;;16.70;99.90;;;;;;4213027;28;20054;-83
2022/08/23 03:27:45;;;;;;;8.77;4.18;;;16.70;99.90;;;;;;4215192;28;20044;-85
2022/08/23 03:29:46;;;;;;;11.88;4.97;;;16.70;99.90;;;;;;4213659;28;20048;-85
2022/08/23 03:31:47;;;;;;;8.20;4.82;;;16.60;99.90;;;;;;4196865;28;20123;-85
2022/08/23 03:33:47;;;;;;;8.18;4.70;;;16.60;99.90;;;;;;4213159;28;20354;-85
2022/08/23 03:36:10;;;;;;;7.43;5.18;;;16.60;99.90;;;;;;4214308;28;20412;-85
2022/08/23 03:38:12;;;;;;;8.93;4.57;;;16.60;99.90;;;;;;4214595;28;20135;-85
2022/08/23 03:40:13;;;;;;;6.03;4.53;;;16.60;99.90;;;;;;4214884;28;20056;-85
2022/08/23 03:42:14;;;;;;;8.35;4.45;;;16.60;99.90;;;;;;4214364;28;20123;-85
2022/08/23 03:44:15;;;;;;;7.43;4.78;;;16.60;99.90;;;;;;4213410;28;20549;-85
2022/08/23 03:46:22;;;;;;;12.48;5.68;;;16.60;99.90;;;;;;4213821;28;20109;-85
2022/08/23 03:48:23;;;;;;;10.90;5.07;;;16.60;99.90;;;;;;4213771;28;20055;-85
2022/08/23 03:50:24;;;;;;;7.10;4.53;;;16.50;99.90;;;;;;4213221;28;20044;-85
2022/08/23 03:52:25;;;;;;;9.18;4.57;;;16.50;99.90;;;;;;4214629;28;20124;-85
2022/08/23 03:54:26;;;;;;;6.15;4.70;;;16.50;99.90;;;;;;4214741;28;20101;-85
2022/08/23 03:56:30;;;;;;;7.85;5.15;;;16.50;99.90;;;;;;4214602;28;20497;-86
2022/08/23 03:58:31;;;;;;;8.65;4.93;;;16.50;99.90;;;;;;4212803;28;20040;-85
2022/08/23 04:00:32;;;;;;;6.57;4.97;;;16.50;99.90;;;;;;4213052;28;20447;-85
2022/08/23 04:02:33;;;;;;;6.10;4.00;;;16.50;99.90;;;;;;4212628;28;20524;-85
2022/08/23 04:04:34;;;;;;;8.73;3.80;;;16.50;99.90;;;;;;4214445;28;20044;-85
2022/08/23 04:06:34;;;;;;;9.60;4.20;;;16.40;99.90;;;;;;4213031;28;20081;-85
2022/08/23 04:08:35;;;;;;;7.72;4.10;;;16.40;99.90;;;;;;4212885;28;20079;-86
2022/08/23 04:10:37;;;;;;;5.95;3.35;;;16.40;99.90;;;;;;4212850;28;20105;-85
2022/08/23 04:12:38;;;;;;;6.65;3.63;;;16.40;99.90;;;;;;4213992;28;20047;-85
2022/08/23 04:14:39;;;;;;;7.50;3.92;;;16.30;99.90;;;;;;4214285;28;20079;-85
2022/08/23 04:16:40;;;;;;;4.68;3.72;;;16.30;99.90;;;;;;4212403;28;20043;-85
2022/08/23 04:18:41;;;;;;;7.32;3.80;;;16.30;99.90;;;;;;4212159;28;20392;-85
2022/08/23 04:20:42;;;;;;;6.18;3.67;;;16.30;99.90;;;;;;4212696;28;20052;-85
2022/08/23 04:22:43;;;;;;;6.68;3.70;;;16.30;99.90;;;;;;4213929;28;20434;-85
2022/08/23 04:24:44;;;;;;;6.55;3.72;;;16.20;99.90;;;;;;4212722;28;20412;-85
2022/08/23 04:26:45;;;;;;;4.85;3.38;;;16.20;99.90;;;;;;4214053;28;20601;-85
2022/08/23 04:28:45;;;;;;;8.68;3.80;;;16.20;99.90;;;;;;4213085;28;20047;-85
2022/08/23 04:30:48;;;;;;;6.95;3.42;;;16.20;99.90;;;;;;4211582;28;20048;-85
2022/08/23 04:32:49;;;;;;;6.35;2.90;;;16.20;99.90;;;;;;4211882;28;20047;-84
2022/08/23 04:34:50;;;;;;;5.80;3.17;;;16.10;99.90;;;;;;4213992;28;20109;-84
2022/08/23 04:36:51;;;;;;;4.13;3.00;;;16.10;99.90;;;;;;4213997;28;20044;-84
2022/08/23 04:38:52;;;;;;;6.57;3.55;;;16.10;99.90;;;;;;4210761;28;20105;-84
2022/08/23 04:43:13;;;;;;;5.82;3.90;;;16.00;99.90;;;;;;4213816;28;20052;-86
2022/08/23 04:45:14;;;;;;;10.70;4.70;;;16.00;99.90;;;;;;4212546;28;20119;-85
2022/08/23 04:47:15;;;;;;;6.40;4.18;;;16.00;99.90;;;;;;4213713;28;20044;-84
2022/08/23 04:49:17;;;;;;;11.35;5.28;;;16.00;99.90;;;;;;4213584;28;20385;-84
2022/08/23 04:51:17;;;;;;;8.00;4.90;;;16.00;99.90;;;;;;4213915;28;20036;-84
2022/08/23 04:53:19;;;;;;;7.65;5.53;;;16.10;99.90;;;;;;4214188;28;20136;-84
2022/08/23 04:55:20;;;;;;;10.90;6.28;;;16.10;99.90;;;;;;4213204;28;20076;-85
2022/08/23 04:57:21;;;;;;;12.52;7.57;;;16.10;99.90;;;;;;4212396;28;20044;-84
2022/08/23 04:59:22;;;;;;;9.18;6.50;;;16.20;99.90;;;;;;4213442;28;20625;-84
2022/08/23 05:01:26;;;;;;;11.70;7.35;;;16.20;99.90;;;;;;4195647;28;20448;-84
2022/08/23 05:03:28;;;;;;;11.32;6.70;;;16.30;99.90;;;;;;4212784;28;20070;-84
2022/08/23 05:05:29;;;;;;;14.80;7.55;;;16.30;99.90;;;;;;4212535;28;20115;-85
2022/08/23 05:07:30;;;;;;;11.10;6.43;;;16.40;99.90;;;;;;4212626;28;20044;-84
2022/08/23 05:09:31;;;;;;;13.68;7.05;;;16.40;99.90;;;;;;4212100;28;20051;-84
2022/08/23 05:11:31;;;;;;;16.33;7.05;;;16.40;99.90;;;;;;4214335;28;20036;-84
2022/08/23 05:13:34;;;;;;;9.48;6.20;;;16.40;99.90;;;;;;4211668;28;20164;-85
2022/08/23 05:15:34;;;;;;;13.27;7.43;;;16.40;99.90;;;;;;4211961;28;20052;-85
2022/08/23 05:17:36;;;;;;;11.45;6.90;;;16.40;99.90;;;;;;4213211;28;20123;-84
2022/08/23 05:19:37;;;;;;;14.38;8.05;;;16.50;99.90;;;;;;4212710;28;20472;-84
2022/08/23 05:21:38;;;;;;;12.60;7.25;;;16.50;99.90;;;;;;4212957;28;20039;-84
2022/08/23 05:23:38;;;;;;;15.90;8.45;;;16.60;99.90;;;;;;4211921;28;20408;-84
2022/08/23 05:25:48;;;;;;;14.75;7.38;;;16.60;99.90;;;;;;4195223;28;20045;-84
2022/08/23 05:27:49;;;;;;;14.52;8.38;;;16.60;99.90;;;;;;4212882;28;20033;-84
2022/08/23 05:29:53;;;;;;;13.15;7.80;;;16.60;99.90;;;;;;4211482;28;20085;-84
2022/08/23 05:31:53;;;;;;;15.75;7.97;;;16.70;99.90;;;;;;4211626;28;20040;-84
2022/08/23 05:33:54;;;;;;;17.35;8.38;;;16.70;99.90;;;;;;4213200;28;20040;-83
2022/08/23 05:35:56;;;;;;;15.18;8.35;;;16.70;99.90;;;;;;4212222;28;20051;-84
2022/08/23 05:37:59;;;;;;;15.32;8.40;;;16.80;99.90;;;;;;4212253;28;20044;-85
2022/08/23 05:39:59;;;;;;;13.45;7.93;;;16.80;99.90;;;;;;4212096;28;20538;-85
2022/08/23 05:42:00;;;;;;;13.73;8.73;;;16.80;99.90;;;;;;4214755;28;20048;-85
2022/08/23 05:44:01;;;;;;;14.18;8.43;;;16.80;99.90;;;;;;4215375;28;20534;-84
2022/08/23 05:46:03;;;;;;;14.77;8.45;;;16.90;99.90;;;;;;4216726;28;20050;-85
2022/08/23 05:48:04;;;;;;;16.90;8.68;;;16.90;99.90;;;;;;4214998;28;20062;-85
2022/08/23 05:50:05;;;;;;;17.00;8.20;;;16.90;99.90;;;;;;4216210;28;20172;-85
2022/08/23 05:52:09;;;;;;;15.85;8.35;;;16.90;99.90;;;;;;4216407;28;20044;-85
2022/08/23 05:54:10;;;;;;;12.35;8.23;;;17.00;99.90;;;;;;4198082;28;20080;-85
2022/08/23 05:56:23;;;;;;;14.63;8.68;;;17.10;99.90;;;;;;4198285;28;20094;-85
2022/08/23 05:58:23;;;;;;;13.02;8.20;;;17.10;99.90;;;;;;4215057;28;20040;-85
2022/08/23 06:00:24;;;;;;;15.65;8.70;;;17.20;99.90;;;;;;4215080;28;20101;-84
2022/08/23 06:02:25;;;;;;;13.18;8.63;;;17.20;99.90;;;;;;4215033;28;20478;-84
2022/08/23 06:04:27;;;;;;;17.38;9.52;;;17.40;99.90;;;;;;4214880;28;20048;-85
2022/08/23 06:06:27;;;;;;;18.75;9.05;;;17.40;99.90;;;;;;4213256;28;20068;-86
2022/08/23 06:08:29;;;;;;;16.98;9.02;;;17.50;99.90;;;;;;4213759;28;20036;-85
2022/08/23 06:10:31;;;;;;;15.55;9.00;;;17.60;99.90;;;;;;4215086;28;20050;-86
2022/08/23 06:12:32;;;;;;;14.80;8.80;;;17.70;99.90;;;;;;4198458;28;20049;-85
2022/08/23 06:14:33;;;;;;;14.35;8.43;;;17.80;99.90;;;;;;4214640;28;20052;-86
2022/08/23 06:16:42;;;;;;;12.70;8.52;;;17.90;99.90;;;;;;4214572;28;20113;-85
2022/08/23 06:18:44;;;;;;;13.43;8.15;;;17.90;99.90;;;;;;4215047;28;20048;-86
2022/08/23 06:20:45;;;;;;;16.33;10.15;;;18.00;99.90;;;;;;4214621;28;20102;-87
2022/08/23 06:22:46;;;;;;;15.93;8.40;;;18.00;99.90;;;;;;4197609;28;20072;-86
2022/08/23 06:24:46;;;;;;;17.65;9.05;;;18.00;99.90;;;;;;4215445;28;20044;-85
2022/08/23 06:26:47;;;;;;;12.63;8.77;;;18.10;99.90;;;;;;4216096;28;20133;-86
2022/08/23 06:28:51;;;;;;;11.90;8.55;;;18.10;99.90;;;;;;4214583;28;20130;-86
2022/08/23 06:30:56;;;;;;;19.77;9.50;;;18.10;99.90;;;;;;4215915;28;20123;-86
2022/08/23 06:32:56;;;;;;;17.17;10.10;;;18.10;99.90;;;;;;4214033;28;20070;-86
2022/08/23 06:34:57;;;;;;;13.25;9.07;;;18.20;99.90;;;;;;4214322;28;20071;-86
2022/08/23 06:37:01;;;;;;;19.65;9.35;;;18.30;99.90;;;;;;4214365;28;20153;-86
2022/08/23 06:39:08;;;;;;;13.82;8.80;;;18.40;99.90;;;;;;4214909;28;20573;-86
2022/08/23 06:41:11;;;;;;;12.93;8.60;;;18.50;99.90;;;;;;4196453;28;20052;-86
2022/08/23 06:43:12;;;;;;;15.15;8.15;;;18.10;99.90;;;;;;4215412;28;20044;-86
2022/08/23 06:45:14;;;;;;;11.52;8.07;;;18.70;99.90;;;;;;4215434;28;20102;-86
2022/08/23 06:47:15;;;;;;;14.43;8.90;;;18.80;99.90;;;;;;4214446;28;20044;-86
2022/08/23 06:49:16;;;;;;;12.95;7.95;;;18.90;99.90;;;;;;4213944;28;20051;-86
2022/08/23 06:51:24;;;;;;;15.32;9.10;;;19.00;99.90;;;;;;4213333;28;20048;-85
2022/08/23 06:53:25;;;;;;;14.82;8.32;;;19.20;99.90;;;;;;4197437;28;20551;-86
2022/08/23 06:55:26;;;;;;;14.07;8.18;;;19.20;99.90;;;;;;4215600;28;20036;-86
2022/08/23 06:57:26;;;;;;;15.45;8.85;;;19.30;99.90;;;;;;4214478;28;20036;-86
2022/08/23 06:59:28;;;;;;;14.00;8.07;;;19.40;99.90;;;;;;4215109;28;20519;-85
2022/08/23 07:01:49;;;;;;;10.25;6.75;;;19.50;99.90;;;;;;4215357;28;20544;-86
2022/08/23 07:03:54;;;;;;;15.48;7.63;;;19.60;99.90;;;;;;4215132;28;20047;-85
2022/08/23 07:05:55;;;;;;;10.93;6.75;;;19.70;99.90;;;;;;4214994;28;20044;-86
2022/08/23 07:07:56;;;;;;;10.82;6.90;;;19.80;99.90;;;;;;4213685;28;20048;-86
2022/08/23 07:09:56;;;;;;;12.98;8.20;;;19.90;99.90;;;;;;4214659;28;20089;-86
2022/08/23 07:11:58;;;;;;;11.23;6.60;;;20.00;99.70;;;;;;4214896;28;20051;-86
2022/08/23 07:14:01;;;;;;;11.77;6.63;;;20.00;99.40;;;;;;4214814;28;20051;-87
2022/08/23 07:16:02;;;;;;;8.13;6.30;;;20.10;99.10;;;;;;4212969;28;20052;-86
2022/08/23 07:18:04;;;;;;;10.85;6.28;;;20.30;98.90;;;;;;4213018;28;20055;-86
2022/08/23 07:20:06;;;;;;;13.20;6.25;;;20.40;98.80;;;;;;4212924;28;20091;-86
2022/08/23 07:22:06;;;;;;;8.80;5.88;;;20.50;98.60;;;;;;4213111;28;20058;-86
2022/08/23 07:24:09;;;;;;;10.32;5.78;;;20.70;98.40;;;;;;4214565;28;20510;-85
2022/08/23 07:26:13;;;;;;;10.45;6.00;;;20.80;98.30;;;;;;4213259;28;20516;-86
2022/08/23 07:28:13;;;;;;;9.50;5.57;;;20.90;97.70;;;;;;4214564;28;20050;-86
2022/08/23 07:30:14;;;;;;;12.13;6.18;;;20.90;97.50;;;;;;4211957;28;20079;-86
2022/08/23 07:32:15;;;;;;;8.52;5.45;;;21.00;97.30;;;;;;4212093;28;20369;-86
2022/08/23 07:34:17;;;;;;;9.00;5.97;;;21.50;97.20;;;;;;4214415;28;20075;-86
2022/08/23 07:36:21;;;;;;;7.95;5.05;;;21.30;96.90;;;;;;4196836;28;20150;-86
2022/08/23 07:38:21;;;;;;;11.15;5.00;;;21.40;96.80;;;;;;4214343;28;20488;-86
2022/08/23 07:40:22;;;;;;;11.65;5.75;;;21.60;96.60;;;;;;4214015;28;20135;-86
2022/08/23 07:42:23;;;;;;;7.18;4.80;;;21.60;96.00;;;;;;4213067;28;20048;-85
2022/08/23 07:44:25;;;;;;;8.02;4.80;;;21.70;95.30;;;;;;4214459;28;20438;-86
2022/08/23 07:46:26;;;;;;;12.98;4.88;;;21.70;94.90;;;;;;4214526;28;20504;-86
2022/08/23 07:48:28;;;;;;;8.25;4.72;;;21.70;94.60;;;;;;4213738;28;20048;-86
2022/08/23 07:50:29;;;;;;;9.25;5.30;;;21.80;94.50;;;;;;4195820;28;20055;-86
2022/08/23 07:52:29;;;;;;;8.77;4.82;;;21.90;94.40;;;;;;4213589;28;20048;-86
2022/08/23 07:54:30;;;;;;;8.63;4.90;;;22.00;94.20;;;;;;4214201;28;20055;-85
2022/08/23 07:56:31;;;;;;;9.02;4.68;;;22.10;94.10;;;;;;4215486;28;20085;-86
2022/08/23 07:58:33;;;;;;;10.32;5.10;;;22.20;94.00;;;;;;4213433;28;20177;-86
2022/08/23 08:00:35;;;;;;;8.95;5.05;;;22.40;93.90;;;;;;4214274;28;20060;-86
2022/08/23 08:02:35;;;;;;;11.95;5.20;;;22.40;93.50;;;;;;4213132;28;20058;-86
2022/08/23 08:04:36;;;;;;;8.38;4.80;;;22.50;93.30;;;;;;4213601;28;20441;-86
2022/08/23 08:06:46;;;;;;;8.18;5.03;;;22.50;93.20;;;;;;4212098;28;20078;-86
2022/08/23 08:08:47;;;;;;;6.63;4.32;;;22.60;92.70;;;;;;4213124;28;20567;-86
2022/08/23 08:10:53;;;;;;;7.05;5.15;;;22.60;92.60;;;;;;4214255;28;20396;-86
2022/08/23 08:12:54;;;;;;;10.45;5.47;;;22.70;92.50;;;;;;4214376;28;20071;-85
2022/08/23 08:14:57;;;;;;;7.43;4.80;;;22.80;92.20;;;;;;4214386;28;20603;-85
2022/08/23 08:16:59;;;;;;;6.85;3.83;;;22.80;91.70;;;;;;4214357;28;20040;-85
2022/08/23 08:19:02;;;;;;;7.70;4.00;;;22.90;91.50;;;;;;4213473;28;20115;-86
2022/08/23 08:21:04;;;;;;;12.02;4.13;;;23.10;91.20;;;;;;4211796;28;20048;-84
2022/08/23 08:23:05;;;;;;;7.10;4.30;;;23.20;90.90;;;;;;4215286;28;20044;-84
2022/08/23 08:25:08;;;;;;;8.65;4.47;;;23.30;91.10;;;;;;4214013;28;20499;-85
2022/08/23 08:27:09;;;;;;;10.00;4.32;;;23.40;90.70;;;;;;4214256;28;20115;-85
2022/08/23 08:29:10;;;;;;;6.55;4.15;;;23.50;90.50;;;;;;4213907;28;20488;-85
2022/08/23 08:31:12;;;;;;;7.00;4.63;;;23.80;90.40;;;;;;4214505;28;20071;-85
2022/08/23 08:33:13;;;;;;;7.55;4.70;;;24.10;90.20;;;;;;4213287;28;20052;-85
2022/08/23 08:35:14;;;;;;;6.72;4.13;;;24.20;89.40;;;;;;4214920;28;20089;-85
2022/08/23 08:37:15;;;;;;;9.45;4.50;;;24.40;89.10;;;;;;4214545;28;20430;-86
2022/08/23 08:39:19;;;;;;;9.02;4.72;;;24.50;88.40;;;;;;4213439;28;20454;-85
2022/08/23 08:41:32;;;;;;;8.57;4.05;;;24.80;88.40;;;;;;4215185;28;20040;-85
2022/08/23 08:43:54;;;;;;;8.88;4.38;;;24.90;87.60;;;;;;4213954;28;20360;-85
2022/08/23 08:46:23;;;;;;;9.63;4.97;;;25.00;87.00;;;;;;4198089;28;20044;-85
2022/08/23 08:48:29;;;;;;;6.05;3.97;;;25.00;86.60;;;;;;4196692;28;20125;-86
2022/08/23 08:50:36;;;;;;;9.07;5.03;;;25.00;87.20;;;;;;4198292;28;20075;-86
2022/08/23 08:52:45;;;;;;;12.73;4.20;;;25.00;86.90;;;;;;4198108;28;20094;-85
2022/08/23 08:54:49;;;;;;;5.80;3.90;;;25.00;86.90;;;;;;4198551;28;20044;-85
2022/08/23 08:56:54;;;;;;;8.13;4.10;;;25.10;86.90;;;;;;4197077;28;20467;-86
2022/08/23 08:59:00;;;;;;;8.93;3.75;;;25.10;86.20;;;;;;4198264;28;20044;-86
2022/08/23 09:01:01;;;;;;;7.32;3.80;;;25.40;85.40;;;;;;4180751;28;20048;-86
2022/08/23 09:03:08;;;;;;;6.00;4.18;;;25.40;85.20;;;;;;4196963;28;20096;-87
2022/08/23 09:05:38;;;;;;;5.93;3.15;;;25.30;83.70;;;;;;4199067;28;20052;-86
2022/08/23 09:08:13;;;;;;;8.13;3.72;;;25.30;83.60;;;;;;4195902;28;20063;-86
2022/08/23 09:10:38;;;;;;;7.53;3.47;;;25.30;82.30;;;;;;4198776;28;20119;-86
2022/08/23 09:13:07;;;;;;;5.93;3.58;;;25.50;82.60;;;;;;4198125;28;20439;-85
2022/08/23 09:15:10;;;;;;;9.00;3.75;;;25.60;81.60;;;;;;4199528;28;20463;-85
2022/08/23 09:17:20;;;;;;;6.20;3.17;;;25.60;82.20;;;;;;4200972;28;20084;-86
2022/08/23 09:19:22;;;;;;;8.80;3.05;;;25.70;80.40;;;;;;4200444;28;20049;-85
2022/08/23 09:21:23;;;;;;;6.13;2.28;;;25.80;81.70;;;;;;4212005;28;20055;-86
2022/08/23 09:23:39;;;;;;;11.73;2.80;;;26.00;81.50;;;;;;4216726;28;20181;-85
2022/08/23 09:25:49;;;;;;;10.55;4.22;;;26.40;80.40;;;;;;4217718;28;20048;-84
2022/08/23 09:27:50;;;;;;;3.83;2.58;;;26.70;79.90;;;;;;4219135;28;20089;-84
2022/08/23 09:30:00;;;;;;;5.28;2.72;;;26.80;78.90;;;;;;4216272;28;20105;-85
2022/08/23 09:32:05;;;;;;;5.78;2.88;;;27.00;77.00;;;;;;4233121;28;20535;-86
2022/08/23 09:34:08;;;;;;;3.95;2.50;;;27.20;78.50;;;;;;4218069;28;20472;-85
2022/08/23 09:36:29;;;;;;;5.90;3.10;;;27.30;77.20;;;;;;4217152;28;20527;-86
2022/08/23 09:38:32;;;;;;;5.30;3.13;;;27.30;74.60;;;;;;4216623;28;20416;-85
2022/08/23 09:40:42;;;;;;;6.72;3.95;;;27.40;75.30;;;;;;4216475;28;20511;-85
2022/08/23 09:42:46;;;;;;;8.57;2.55;;;27.40;73.50;;;;;;4214329;28;20083;-86
2022/08/23 09:44:48;;;;;;;5.40;2.33;;;27.70;74.10;;;;;;4214739;28;20131;-85
2022/08/23 09:47:03;;;;;;;3.75;1.83;;;27.70;74.50;;;;;;4216515;28;20044;-86
2022/08/23 09:49:23;;;;;;;5.82;2.72;;;28.00;74.60;;;;;;4216112;28;20075;-86
2022/08/23 09:51:33;;;;;;;5.43;2.13;;;28.30;71.20;;;;;;4214813;28;20071;-85
2022/08/23 09:53:35;;;;;;;5.28;2.30;;;28.60;72.10;;;;;;4215963;28;20542;-86
2022/08/23 09:55:53;;;;;;;10.05;2.40;;;28.50;70.60;;;;;;4215170;28;20119;-85
2022/08/23 09:57:54;;;;;;;6.55;2.83;;;28.60;70.10;;;;;;4218137;28;20410;-84
2022/08/23 10:00:00;;;;;;;3.65;1.88;;;28.60;70.20;;;;;;4218106;28;20089;-84
2022/08/23 10:02:02;;;;;;;4.13;1.70;;;28.60;68.40;;;;;;4216893;28;20044;-84
2022/08/23 10:04:05;;;;;;;4.45;2.28;;;28.70;69.30;;;;;;4216627;28;20058;-84
2022/08/23 10:06:09;;;;;;;3.55;1.85;;;28.90;67.40;;;;;;4215218;28;20044;-86
2022/08/23 10:08:27;;;;;;;3.85;1.85;;;28.90;67.00;;;;;;4215897;28;20052;-85
2022/08/23 10:10:42;;;;;;;4.38;1.45;;;29.00;65.70;;;;;;4216361;28;20447;-85
2022/08/23 10:12:43;;;;;;;12.18;2.95;;;29.20;65.40;;;;;;4215292;28;20131;-84
2022/08/23 10:14:44;;;;;;;3.55;2.40;;;29.70;66.00;;;;;;4216778;28;20092;-85
2022/08/23 10:17:13;;;;;;;6.20;2.00;;;29.90;64.40;;;;;;4198319;28;20431;-85
2022/08/23 10:19:33;;;;;;;;;;;29.90;63.80;;;;;;4215134;28;20055;-84
2022/08/23 10:21:49;;;;;;;4.15;1.50;;;30.30;64.50;;;;;;4216980;28;19927;-85
2022/08/23 10:24:02;;;;;;;5.45;2.35;;;30.70;63.50;;;;;;4216041;28;20123;-84
2022/08/23 10:26:09;;;;;;;3.22;1.98;;;31.00;62.10;;;;;;4215257;28;20067;-84
2022/08/23 10:31:15;;;;;;;7.95;2.10;;;31.00;60.20;;;;;;4217212;28;20119;-85
2022/08/23 10:34:01;;;;;;;6.05;2.40;;;31.10;61.30;;;;;;4217535;28;20115;-85
2022/08/23 10:36:17;;;;;;;5.45;2.08;;;31.40;60.00;;;;;;4200704;28;20097;-85
2022/08/23 10:38:38;;;;;;;8.23;2.50;;;31.40;61.20;;;;;;4217583;28;20048;-85
2022/08/23 10:41:02;;;;;;;5.53;2.08;;;31.40;58.90;;;;;;4218094;28;20099;-85
2022/08/23 10:43:32;;;;;;;9.63;2.20;;;31.70;62.00;;;;;;4217955;28;20121;-85
2022/08/23 10:45:37;;;;;;;12.20;3.17;;;32.00;61.50;;;;;;4203271;28;20071;-85
2022/08/23 10:47:57;;;;;;;7.25;2.22;;;31.80;59.00;;;;;;4216491;28;20054;-84
2022/08/23 10:50:04;;;;;;;5.88;2.35;;;31.90;59.40;;;;;;4216250;28;20048;-85
2022/08/23 10:52:11;;;;;;;6.43;2.47;;;32.30;58.50;;;;;;4218120;28;20075;-86
2022/08/23 10:54:33;;;;;;;5.65;2.45;;;32.50;59.00;;;;;;4217389;28;20059;-86
2022/08/23 10:56:37;;;;;;;6.53;3.38;;;32.70;58.20;;;;;;4217961;28;20044;-86